Time;durP1;ratioP1;P1;durP2;ratioP2;P2;SDS_P1;SDS_P2;PMS_P1;PMS_P2;Temp;Humidity;BMP_temperature;BMP_pressure;BME280_temperature;BME280_humidity;BME280_pressure;Samples;Min_cycle;Max_cycle;Signal;HPM_P1;HPM_P2
2023/06/19 00:01:19;;;;;;;10.13;7.68;;;22.90;91.20;;;;;;4999170;28;20509;-49
2023/06/19 00:03:45;;;;;;;11.20;7.78;;;22.90;91.10;;;;;;4991938;28;20435;-51
2023/06/19 00:06:12;;;;;;;9.25;6.80;;;22.90;91.20;;;;;;4991463;28;20202;-50
2023/06/19 00:08:41;;;;;;;10.15;6.60;;;22.90;91.40;;;;;;4975451;28;20038;-51
2023/06/19 00:11:07;;;;;;;9.73;7.05;;;22.90;91.20;;;;;;5011659;28;20399;-51
2023/06/19 00:13:33;;;;;;;9.18;7.05;;;22.90;91.10;;;;;;5011671;28;20074;-49
2023/06/19 00:16:00;;;;;;;9.18;7.32;;;22.90;91.20;;;;;;5011436;28;20034;-49
2023/06/19 00:18:26;;;;;;;9.75;6.97;;;22.90;91.10;;;;;;5011314;28;21921;-49
2023/06/19 00:20:54;;;;;;;9.40;7.20;;;22.90;91.10;;;;;;5007930;28;20038;-51
2023/06/19 00:23:20;;;;;;;8.68;6.95;;;22.90;91.00;;;;;;5009811;28;20803;-49
2023/06/19 00:25:45;;;;;;;8.93;6.95;;;22.90;90.90;;;;;;4997098;28;20127;-51
2023/06/19 00:28:13;;;;;;;9.30;6.78;;;22.90;90.90;;;;;;4991761;28;20074;-48
2023/06/19 00:30:39;;;;;;;7.80;6.80;;;22.90;90.90;;;;;;4974417;28;20421;-48
2023/06/19 00:33:06;;;;;;;11.07;6.78;;;22.90;90.80;;;;;;4991132;28;20397;-49
2023/06/19 00:35:32;;;;;;;8.40;6.85;;;22.90;90.70;;;;;;4991367;28;20038;-48
2023/06/19 00:38:00;;;;;;;8.15;6.68;;;22.90;90.70;;;;;;4994058;28;20124;-47
2023/06/19 00:40:29;;;;;;;8.82;7.07;;;22.90;90.70;;;;;;5008710;28;20129;-50
2023/06/19 00:42:55;;;;;;;9.25;6.93;;;22.80;90.60;;;;;;4991424;28;20108;-49
2023/06/19 00:45:21;;;;;;;11.13;6.95;;;22.90;90.80;;;;;;4997709;28;20041;-49
2023/06/19 00:47:46;;;;;;;8.98;7.50;;;22.80;90.80;;;;;;5010885;28;20377;-51
2023/06/19 00:50:12;;;;;;;9.02;7.10;;;22.90;90.70;;;;;;5011045;28;20034;-50
2023/06/19 00:52:38;;;;;;;8.18;6.85;;;22.80;90.70;;;;;;5010844;28;20076;-49
2023/06/19 00:55:07;;;;;;;9.13;7.88;;;22.80;90.70;;;;;;5001375;28;20481;-52
2023/06/19 00:57:33;;;;;;;9.30;7.00;;;22.80;90.70;;;;;;4991815;28;20374;-52
2023/06/19 00:59:58;;;;;;;10.00;7.30;;;22.80;90.70;;;;;;4992889;28;20040;-50
2023/06/19 01:02:25;;;;;;;10.05;6.93;;;22.80;90.70;;;;;;5010946;28;20026;-49
2023/06/19 01:04:51;;;;;;;9.32;6.85;;;22.80;90.70;;;;;;4992680;28;20093;-52
2023/06/19 01:07:29;;;;;;;8.90;7.30;;;22.80;90.70;;;;;;4991353;28;20034;-51
2023/06/19 01:10:01;;;;;;;11.70;7.53;;;22.80;90.80;;;;;;4990305;28;20050;-50
2023/06/19 01:12:51;;;;;;;9.75;7.18;;;22.80;90.90;;;;;;4990902;28;20046;-47
2023/06/19 01:15:18;;;;;;;8.48;6.63;;;22.80;91.10;;;;;;4989774;28;20042;-51
2023/06/19 01:17:46;;;;;;;10.45;6.88;;;22.80;91.10;;;;;;4990655;28;20362;-48
2023/06/19 01:20:13;;;;;;;9.48;7.47;;;22.70;91.10;;;;;;4992545;28;20125;-52
2023/06/19 01:22:38;;;;;;;8.73;6.65;;;22.80;91.10;;;;;;4990734;28;20041;-49
2023/06/19 01:25:05;;;;;;;8.85;6.68;;;22.70;91.10;;;;;;4996467;28;20046;-52
2023/06/19 01:27:32;;;;;;;8.55;7.13;;;22.80;91.50;;;;;;4988047;28;20084;-49
2023/06/19 01:29:59;;;;;;;8.10;7.20;;;22.80;91.20;;;;;;4999843;28;20040;-47
2023/06/19 01:32:36;;;;;;;8.27;7.20;;;22.80;91.20;;;;;;5010204;28;20148;-47
2023/06/19 01:35:03;;;;;;;8.88;7.10;;;22.80;91.30;;;;;;5000918;28;20140;-48
2023/06/19 01:37:33;;;;;;;9.18;6.43;;;22.80;91.40;;;;;;5007475;28;20073;-49
2023/06/19 01:40:01;;;;;;;8.13;7.22;;;22.80;91.40;;;;;;5003551;28;20503;-49
2023/06/19 01:42:28;;;;;;;9.18;6.93;;;22.80;91.50;;;;;;5002188;28;20358;-52
2023/06/19 01:44:54;;;;;;;8.98;7.07;;;22.80;91.40;;;;;;4993991;28;20092;-52
2023/06/19 01:47:21;;;;;;;8.95;7.03;;;22.80;91.50;;;;;;5009520;28;20034;-50
2023/06/19 01:49:47;;;;;;;7.47;6.55;;;22.70;91.50;;;;;;5010362;28;20108;-51
2023/06/19 01:52:13;;;;;;;10.65;6.78;;;22.70;91.70;;;;;;4996362;28;20045;-50
2023/06/19 01:54:39;;;;;;;7.50;5.85;;;22.80;91.70;;;;;;4990507;28;20038;-47
2023/06/19 01:57:05;;;;;;;9.05;7.07;;;22.70;91.80;;;;;;5002029;28;20038;-49
2023/06/19 01:59:30;;;;;;;9.38;6.80;;;22.70;91.90;;;;;;5010137;28;20038;-49
2023/06/19 02:01:56;;;;;;;10.75;6.97;;;22.70;92.10;;;;;;4983582;28;20053;-48
2023/06/19 02:04:22;;;;;;;9.18;7.10;;;22.70;92.20;;;;;;5006096;28;20030;-46
2023/06/19 02:06:47;;;;;;;9.38;7.13;;;22.70;92.40;;;;;;5010175;28;20038;-51
2023/06/19 02:09:13;;;;;;;7.97;6.88;;;22.60;92.50;;;;;;5010142;28;20034;-50
2023/06/19 02:11:39;;;;;;;10.15;7.38;;;22.60;92.60;;;;;;5010065;28;20120;-48
2023/06/19 02:14:04;;;;;;;12.25;7.28;;;22.60;92.80;;;;;;5010450;28;20038;-47
2023/06/19 02:16:30;;;;;;;9.63;6.85;;;22.60;92.90;;;;;;5010090;28;20358;-47
2023/06/19 02:18:56;;;;;;;9.82;7.45;;;22.50;93.00;;;;;;4976100;28;20530;-47
2023/06/19 02:21:22;;;;;;;9.15;7.10;;;22.50;93.10;;;;;;5012536;28;20092;-46
2023/06/19 02:23:48;;;;;;;9.85;7.18;;;22.40;93.20;;;;;;5013436;28;20032;-45
2023/06/19 02:26:14;;;;;;;9.25;7.22;;;22.40;93.30;;;;;;4995729;28;20034;-50
2023/06/19 02:28:39;;;;;;;8.73;7.25;;;22.40;93.50;;;;;;4996064;28;20100;-51
2023/06/19 02:31:05;;;;;;;11.05;7.13;;;22.30;93.70;;;;;;4976692;28;20050;-49
2023/06/19 02:33:32;;;;;;;9.88;6.82;;;22.20;93.90;;;;;;5005513;28;20046;-48
2023/06/19 02:35:58;;;;;;;9.82;7.18;;;22.20;94.00;;;;;;4979227;28;20374;-47
2023/06/19 02:38:29;;;;;;;9.57;7.22;;;22.20;94.20;;;;;;5006151;28;20123;-47
2023/06/19 02:40:57;;;;;;;9.35;6.95;;;22.10;94.30;;;;;;4976296;28;20061;-46
2023/06/19 02:43:23;;;;;;;8.18;6.82;;;22.10;94.50;;;;;;4990180;28;20129;-51
2023/06/19 02:45:49;;;;;;;8.45;6.60;;;22.10;94.70;;;;;;4990518;28;20233;-47
2023/06/19 02:48:14;;;;;;;8.68;6.95;;;22.00;94.80;;;;;;4981027;28;20069;-47
2023/06/19 02:50:40;;;;;;;8.77;6.65;;;22.00;94.90;;;;;;4989507;28;20117;-48
2023/06/19 02:53:06;;;;;;;8.27;6.20;;;22.00;95.00;;;;;;4988361;28;20045;-49
2023/06/19 02:55:31;;;;;;;11.95;6.40;;;22.00;95.10;;;;;;4985910;28;20034;-46
2023/06/19 02:57:57;;;;;;;8.05;6.15;;;21.90;95.30;;;;;;4991888;28;20092;-49
2023/06/19 03:00:23;;;;;;;8.23;5.95;;;21.90;95.40;;;;;;4993272;28;20030;-48
2023/06/19 03:02:50;;;;;;;6.57;5.63;;;21.90;95.60;;;;;;4993263;28;20030;-48
2023/06/19 03:05:16;;;;;;;9.18;5.63;;;21.80;96.00;;;;;;4990296;28;20092;-48
2023/06/19 03:07:42;;;;;;;7.70;4.95;;;21.80;96.00;;;;;;4991750;28;20508;-46
2023/06/19 03:10:08;;;;;;;7.95;5.32;;;21.70;96.10;;;;;;4993058;28;20049;-46
2023/06/19 03:12:34;;;;;;;8.23;4.97;;;21.70;96.30;;;;;;4993137;28;20489;-48
2023/06/19 03:14:59;;;;;;;6.63;4.93;;;21.60;96.40;;;;;;4993107;28;20093;-49
2023/06/19 03:17:25;;;;;;;9.40;4.80;;;21.50;96.60;;;;;;4992757;28;20049;-49
2023/06/19 03:19:51;;;;;;;9.18;5.32;;;21.50;96.80;;;;;;4992470;28;20422;-49
2023/06/19 03:22:19;;;;;;;7.20;5.57;;;21.40;97.00;;;;;;4992799;28;20042;-49
2023/06/19 03:24:45;;;;;;;7.72;5.68;;;21.40;97.20;;;;;;4992708;28;20129;-49
2023/06/19 03:27:10;;;;;;;7.10;5.35;;;21.30;97.30;;;;;;4992950;28;20113;-49
2023/06/19 03:29:36;;;;;;;7.07;5.57;;;21.30;97.40;;;;;;4992638;28;20050;-49
2023/06/19 03:32:02;;;;;;;8.13;5.57;;;21.20;97.70;;;;;;4991718;28;20066;-50
2023/06/19 03:34:27;;;;;;;8.20;5.70;;;21.20;97.90;;;;;;4987943;28;20046;-47
2023/06/19 03:36:53;;;;;;;7.45;5.55;;;21.10;98.10;;;;;;4991516;28;20544;-50
2023/06/19 03:39:19;;;;;;;6.90;5.30;;;21.10;98.20;;;;;;4990831;28;20402;-45
2023/06/19 03:41:44;;;;;;;7.55;5.30;;;21.00;98.50;;;;;;5009880;28;20341;-49
2023/06/19 03:44:10;;;;;;;6.60;5.20;;;20.90;98.60;;;;;;5004020;28;20035;-45
2023/06/19 03:46:36;;;;;;;9.23;5.28;;;20.90;99.00;;;;;;4994980;28;20050;-48
2023/06/19 03:49:04;;;;;;;6.03;4.75;;;20.80;99.50;;;;;;4959067;28;20046;-46
2023/06/19 03:51:30;;;;;;;6.30;4.53;;;20.80;99.50;;;;;;4992192;28;20038;-47
2023/06/19 03:53:55;;;;;;;6.90;4.50;;;20.80;99.70;;;;;;4992092;28;20053;-46
2023/06/19 03:56:21;;;;;;;6.05;4.40;;;20.70;99.90;;;;;;4993508;28;20084;-51
2023/06/19 03:58:47;;;;;;;7.32;4.18;;;20.70;99.90;;;;;;4992114;28;20039;-46
2023/06/19 04:01:13;;;;;;;7.20;4.43;;;20.60;99.90;;;;;;4992245;28;20042;-47
2023/06/19 04:03:38;;;;;;;6.65;4.18;;;20.60;99.90;;;;;;4992063;28;20050;-48
2023/06/19 04:06:04;;;;;;;6.05;3.75;;;20.60;99.90;;;;;;4991412;28;20026;-50
2023/06/19 04:08:30;;;;;;;7.55;4.40;;;20.60;99.90;;;;;;4974464;28;20084;-51
2023/06/19 04:10:55;;;;;;;6.50;4.20;;;20.60;99.90;;;;;;4981806;28;20065;-50
2023/06/19 04:13:21;;;;;;;5.70;4.10;;;20.60;99.90;;;;;;5009047;28;20038;-49
2023/06/19 04:15:47;;;;;;;5.93;4.40;;;20.50;99.90;;;;;;4991937;28;20042;-49
2023/06/19 04:18:13;;;;;;;6.85;4.53;;;20.50;99.90;;;;;;4957401;28;20046;-47
2023/06/19 04:20:40;;;;;;;6.50;4.22;;;20.50;99.90;;;;;;4974174;28;20503;-50
2023/06/19 04:23:05;;;;;;;5.28;4.40;;;20.50;99.90;;;;;;4989884;28;20496;-48
2023/06/19 04:25:31;;;;;;;5.38;3.95;;;20.50;99.90;;;;;;4991844;28;20042;-48
2023/06/19 04:27:57;;;;;;;6.88;4.35;;;20.50;99.90;;;;;;4991649;28;20046;-51
2023/06/19 04:30:22;;;;;;;6.85;4.18;;;20.50;99.90;;;;;;4999947;28;20372;-47
2023/06/19 04:32:48;;;;;;;7.40;4.05;;;20.40;99.90;;;;;;5011403;28;20504;-47
2023/06/19 04:35:14;;;;;;;6.30;4.10;;;20.40;99.90;;;;;;4995764;28;20423;-50
2023/06/19 04:37:39;;;;;;;6.63;4.10;;;20.40;99.90;;;;;;4974365;28;20120;-47
2023/06/19 04:40:07;;;;;;;7.30;4.15;;;20.40;99.90;;;;;;5006347;28;20138;-49
2023/06/19 04:42:32;;;;;;;6.75;4.07;;;20.50;99.90;;;;;;5010923;28;20042;-49
2023/06/19 04:44:59;;;;;;;5.75;4.28;;;20.50;99.90;;;;;;4999523;28;20045;-48
2023/06/19 04:47:25;;;;;;;6.78;4.10;;;20.60;99.90;;;;;;4991338;28;20141;-46
2023/06/19 04:49:50;;;;;;;5.45;4.22;;;20.60;99.90;;;;;;4991292;28;20042;-48
2023/06/19 04:52:18;;;;;;;5.82;4.10;;;20.60;99.90;;;;;;4991643;28;20038;-46
2023/06/19 04:54:44;;;;;;;6.65;4.47;;;20.60;99.90;;;;;;5000078;28;20116;-49
2023/06/19 04:57:10;;;;;;;6.22;4.55;;;20.60;99.90;;;;;;5010733;28;20037;-49
2023/06/19 04:59:36;;;;;;;7.47;5.28;;;20.70;99.90;;;;;;5010923;28;20042;-49
2023/06/19 05:02:02;;;;;;;5.70;4.70;;;20.70;99.90;;;;;;5001061;28;20056;-50
2023/06/19 05:04:32;;;;;;;6.03;4.68;;;20.70;99.90;;;;;;4989554;28;20113;-49
2023/06/19 05:06:58;;;;;;;7.38;5.00;;;20.80;99.90;;;;;;4999777;28;20038;-50
2023/06/19 05:09:24;;;;;;;8.73;5.07;;;20.80;99.90;;;;;;4991182;28;20125;-50
2023/06/19 05:11:49;;;;;;;6.57;4.90;;;20.80;99.90;;;;;;4991003;28;20479;-51
2023/06/19 05:14:15;;;;;;;7.60;4.90;;;20.90;99.90;;;;;;4994517;28;20404;-50
2023/06/19 05:16:41;;;;;;;7.85;5.40;;;20.90;99.90;;;;;;4991236;28;20041;-46
2023/06/19 05:19:07;;;;;;;11.57;5.70;;;20.90;99.90;;;;;;5010386;28;20046;-48
2023/06/19 05:21:32;;;;;;;6.68;4.95;;;21.00;99.90;;;;;;5010401;28;20036;-48
2023/06/19 05:23:58;;;;;;;8.10;5.22;;;21.00;99.90;;;;;;5002552;28;20037;-51
2023/06/19 05:26:23;;;;;;;10.40;4.80;;;21.00;99.90;;;;;;4991056;28;20030;-48
2023/06/19 05:28:49;;;;;;;6.60;5.25;;;21.00;99.90;;;;;;4993405;28;20050;-47
2023/06/19 05:31:15;;;;;;;8.63;5.00;;;21.00;99.90;;;;;;4995091;28;20041;-48
2023/06/19 05:33:41;;;;;;;8.43;5.57;;;21.10;99.90;;;;;;5009494;28;20381;-49
2023/06/19 05:36:07;;;;;;;6.82;5.38;;;21.10;99.90;;;;;;4993297;28;20052;-49
2023/06/19 05:38:33;;;;;;;6.90;5.80;;;21.10;99.90;;;;;;4990255;28;20274;-51
2023/06/19 05:40:59;;;;;;;7.47;6.20;;;21.20;99.90;;;;;;4988503;28;20054;-49
2023/06/19 05:43:25;;;;;;;8.35;7.07;;;21.20;99.90;;;;;;4987766;28;20044;-51
2023/06/19 05:45:52;;;;;;;11.25;7.70;;;21.30;99.90;;;;;;4989337;28;20043;-49
2023/06/19 05:48:18;;;;;;;11.55;8.90;;;21.30;99.90;;;;;;4987176;28;20042;-51
2023/06/19 05:50:43;;;;;;;15.35;10.57;;;21.30;99.90;;;;;;4989932;28;20128;-51
2023/06/19 05:53:09;;;;;;;12.25;10.82;;;21.30;99.90;;;;;;4989116;28;20045;-50
2023/06/19 05:55:35;;;;;;;13.93;12.43;;;21.20;99.90;;;;;;4993060;28;20056;-49
2023/06/19 05:58:02;;;;;;;15.65;12.32;;;21.20;99.90;;;;;;4993137;28;20134;-48
2023/06/19 06:00:29;;;;;;;13.82;11.68;;;21.10;99.90;;;;;;4994176;28;20050;-48
2023/06/19 06:02:59;;;;;;;14.68;11.30;;;21.10;99.90;;;;;;5001220;28;20052;-51
2023/06/19 06:05:26;;;;;;;14.05;12.55;;;21.00;99.90;;;;;;5013492;28;20493;-49
2023/06/19 06:07:52;;;;;;;13.32;11.93;;;21.00;99.90;;;;;;5003955;28;20065;-50
2023/06/19 06:10:20;;;;;;;16.98;12.85;;;20.90;99.90;;;;;;5011753;28;20492;-50
2023/06/19 06:12:46;;;;;;;14.32;12.57;;;20.90;99.90;;;;;;4994055;28;20120;-51
2023/06/19 06:15:11;;;;;;;18.08;12.38;;;20.90;99.90;;;;;;4994338;28;20034;-50
2023/06/19 06:17:37;;;;;;;13.02;11.55;;;20.90;99.90;;;;;;4993912;28;20085;-49
2023/06/19 06:20:10;;;;;;;13.00;11.35;;;20.90;99.90;;;;;;4998252;28;20064;-49
2023/06/19 06:22:37;;;;;;;13.77;10.00;;;20.80;99.90;;;;;;4992729;28;20549;-48
2023/06/19 06:25:02;;;;;;;10.07;8.98;;;20.80;99.90;;;;;;4992540;28;20038;-49
2023/06/19 06:27:28;;;;;;;10.05;8.75;;;20.80;99.90;;;;;;4992286;28;20062;-49
2023/06/19 06:29:54;;;;;;;11.57;8.75;;;20.80;99.90;;;;;;4991003;28;20046;-50
2023/06/19 06:32:19;;;;;;;8.95;7.60;;;20.70;99.90;;;;;;4992472;28;20049;-49
2023/06/19 06:34:45;;;;;;;8.57;6.93;;;20.80;99.90;;;;;;4992864;28;20046;-50
2023/06/19 06:37:10;;;;;;;10.20;7.60;;;20.70;99.90;;;;;;4983435;28;20054;-52
2023/06/19 06:39:36;;;;;;;8.23;6.97;;;20.70;99.90;;;;;;4966968;28;20085;-50
2023/06/19 06:42:02;;;;;;;8.80;7.05;;;20.70;99.90;;;;;;4991508;28;20054;-49
2023/06/19 06:44:28;;;;;;;9.93;6.85;;;20.80;99.90;;;;;;4971351;28;20522;-51
2023/06/19 06:46:55;;;;;;;9.43;7.25;;;20.70;99.90;;;;;;4991755;28;20714;-49
2023/06/19 06:49:22;;;;;;;8.88;6.63;;;20.70;99.90;;;;;;4990298;28;20120;-48
2023/06/19 06:51:47;;;;;;;7.88;5.07;;;20.70;99.90;;;;;;4990242;28;20050;-50
2023/06/19 06:54:13;;;;;;;6.55;4.82;;;20.70;99.90;;;;;;4991900;28;20572;-49
2023/06/19 06:56:39;;;;;;;7.60;5.10;;;20.70;99.90;;;;;;4990830;28;20325;-47
2023/06/19 06:59:04;;;;;;;6.40;4.88;;;20.70;99.90;;;;;;4992797;28;20030;-50
2023/06/19 07:01:30;;;;;;;7.28;4.82;;;20.70;99.90;;;;;;4991069;28;20043;-50
2023/06/19 07:03:56;;;;;;;9.00;5.60;;;20.70;99.90;;;;;;4970234;28;20125;-51
2023/06/19 07:06:21;;;;;;;7.45;5.72;;;20.70;99.90;;;;;;4991402;28;20441;-50
2023/06/19 07:08:47;;;;;;;9.20;6.18;;;20.60;99.90;;;;;;4988067;28;20037;-49
2023/06/19 07:11:14;;;;;;;8.15;6.70;;;20.60;99.90;;;;;;4976409;28;20097;-50
2023/06/19 07:13:41;;;;;;;8.60;6.97;;;20.50;99.90;;;;;;4973721;28;20053;-51
2023/06/19 07:16:07;;;;;;;10.68;7.32;;;20.50;99.90;;;;;;4978762;28;20103;-50
2023/06/19 07:18:35;;;;;;;10.07;7.20;;;20.50;99.90;;;;;;4984804;28;20057;-49
2023/06/19 07:21:01;;;;;;;8.45;6.60;;;20.50;99.90;;;;;;4984309;28;20081;-50
2023/06/19 07:23:27;;;;;;;7.72;6.43;;;20.50;99.90;;;;;;4983797;28;20141;-53
2023/06/19 07:25:52;;;;;;;8.35;6.57;;;20.50;99.90;;;;;;4983331;28;20125;-53
2023/06/19 07:28:18;;;;;;;9.05;6.90;;;20.50;99.90;;;;;;4981292;28;20261;-49
2023/06/19 07:30:45;;;;;;;7.53;6.22;;;20.50;99.90;;;;;;4983404;28;20129;-48
2023/06/19 07:33:10;;;;;;;8.20;7.07;;;20.60;99.90;;;;;;4984260;28;20050;-51
2023/06/19 07:35:36;;;;;;;8.13;6.35;;;20.60;99.90;;;;;;4983206;28;20532;-49
2023/06/19 07:38:02;;;;;;;7.47;5.82;;;20.60;99.90;;;;;;4983407;28;20065;-50
2023/06/19 07:40:27;;;;;;;6.95;6.05;;;20.60;99.90;;;;;;4966541;28;20141;-50
2023/06/19 07:42:53;;;;;;;6.20;5.45;;;20.60;99.90;;;;;;4982221;28;20042;-54
2023/06/19 07:45:18;;;;;;;7.13;6.05;;;20.60;99.90;;;;;;4983107;28;20045;-51
2023/06/19 07:47:54;;;;;;;7.72;6.65;;;20.70;99.90;;;;;;4983289;28;20039;-53
2023/06/19 07:50:19;;;;;;;7.63;6.30;;;20.70;99.90;;;;;;4984748;28;20516;-55
2023/06/19 07:52:45;;;;;;;7.97;7.18;;;20.80;99.90;;;;;;4982555;28;20038;-53
2023/06/19 07:55:11;;;;;;;9.65;8.18;;;20.90;99.90;;;;;;4985958;28;20038;-52
2023/06/19 07:57:37;;;;;;;9.80;8.90;;;21.10;99.90;;;;;;4984665;28;20050;-53
2023/06/19 08:00:13;;;;;;;10.65;8.25;;;21.30;99.90;;;;;;4984013;28;20085;-51
2023/06/19 08:02:39;;;;;;;9.13;8.23;;;21.30;99.90;;;;;;4982169;28;20116;-50
2023/06/19 08:05:08;;;;;;;9.10;8.20;;;21.30;99.90;;;;;;4981098;28;20076;-53
2023/06/19 08:07:34;;;;;;;10.23;7.70;;;21.30;99.90;;;;;;4981909;28;20038;-55
2023/06/19 08:09:59;;;;;;;6.70;6.00;;;21.40;99.90;;;;;;4980907;28;20030;-53
2023/06/19 08:12:25;;;;;;;7.88;6.53;;;21.40;99.90;;;;;;4981446;28;20042;-52
2023/06/19 08:14:51;;;;;;;10.55;8.38;;;21.50;99.90;;;;;;4982750;28;20128;-50
2023/06/19 08:17:17;;;;;;;9.50;8.50;;;21.50;99.90;;;;;;4981197;28;20034;-52
2023/06/19 08:19:43;;;;;;;10.55;7.15;;;21.50;99.90;;;;;;4982198;28;20486;-54
2023/06/19 08:22:09;;;;;;;7.75;6.45;;;21.50;99.90;;;;;;4981780;28;20035;-49
2023/06/19 08:24:39;;;;;;;7.15;6.15;;;21.50;99.90;;;;;;4982100;28;20405;-50
2023/06/19 08:27:05;;;;;;;9.30;6.07;;;21.60;99.90;;;;;;4981718;28;20366;-51
2023/06/19 08:29:31;;;;;;;6.97;5.82;;;21.70;99.90;;;;;;4981831;28;20042;-52
2023/06/19 08:31:57;;;;;;;7.97;5.80;;;21.80;99.90;;;;;;4984995;28;20559;-51
2023/06/19 08:34:22;;;;;;;8.95;5.75;;;21.80;99.90;;;;;;4960550;28;20030;-53
2023/06/19 08:36:48;;;;;;;7.80;5.68;;;21.80;99.90;;;;;;4981845;28;20038;-49
2023/06/19 08:39:14;;;;;;;7.60;5.63;;;21.80;99.90;;;;;;4981349;28;20576;-50
2023/06/19 08:41:41;;;;;;;8.15;6.40;;;21.90;99.90;;;;;;4962963;28;20047;-47
2023/06/19 08:44:07;;;;;;;10.68;6.32;;;21.90;99.90;;;;;;4960836;28;20039;-48
2023/06/19 08:46:34;;;;;;;10.57;6.28;;;22.00;99.90;;;;;;4959600;28;20027;-50
2023/06/19 08:49:00;;;;;;;8.68;6.50;;;22.00;99.90;;;;;;4960677;28;20037;-51
2023/06/19 08:51:30;;;;;;;9.50;7.00;;;22.00;99.90;;;;;;4962547;28;20050;-49
2023/06/19 08:54:01;;;;;;;11.57;7.20;;;22.00;99.90;;;;;;4946484;28;20049;-49
2023/06/19 08:56:27;;;;;;;10.57;6.90;;;22.00;99.90;;;;;;4962680;28;20074;-48
2023/06/19 08:58:53;;;;;;;9.85;7.13;;;22.00;99.90;;;;;;4961321;28;20042;-48
2023/06/19 09:01:19;;;;;;;8.82;7.10;;;22.00;99.90;;;;;;4965260;28;20035;-50
2023/06/19 09:03:46;;;;;;;13.35;9.38;;;21.90;99.90;;;;;;4964131;28;20409;-47
2023/06/19 09:06:18;;;;;;;11.57;9.60;;;21.80;99.90;;;;;;4963452;28;20394;-46
2023/06/19 09:08:44;;;;;;;13.77;11.02;;;21.70;99.90;;;;;;4947077;28;20070;-50
2023/06/19 09:11:11;;;;;;;12.27;9.77;;;21.70;99.90;;;;;;4961702;28;20074;-47
2023/06/19 09:13:36;;;;;;;13.30;10.50;;;21.70;99.90;;;;;;4960838;28;20130;-50
2023/06/19 09:16:05;;;;;;;13.43;10.25;;;21.60;99.90;;;;;;4963150;28;20439;-51
2023/06/19 09:18:41;;;;;;;12.70;10.27;;;21.50;99.90;;;;;;4949254;28;20121;-49
2023/06/19 09:21:16;;;;;;;16.15;11.77;;;21.40;99.90;;;;;;4956615;28;20031;-50
2023/06/19 09:23:42;;;;;;;14.70;11.82;;;21.30;99.90;;;;;;4957560;28;20035;-48
2023/06/19 09:26:07;;;;;;;16.35;12.30;;;21.30;99.90;;;;;;4965928;28;20042;-49
2023/06/19 09:28:33;;;;;;;12.27;11.00;;;21.40;99.90;;;;;;4950133;28;20041;-50
2023/06/19 09:31:01;;;;;;;14.27;9.68;;;21.40;99.90;;;;;;4970302;28;20121;-52
2023/06/19 09:33:29;;;;;;;11.45;9.63;;;21.30;99.90;;;;;;4971822;28;20043;-54
2023/06/19 09:35:57;;;;;;;11.50;9.50;;;21.40;99.90;;;;;;4972604;28;20050;-53
2023/06/19 09:38:28;;;;;;;12.48;9.68;;;21.50;99.90;;;;;;4970355;28;20045;-54
2023/06/19 09:40:55;;;;;;;15.63;10.07;;;21.60;99.90;;;;;;4974619;28;20054;-54
2023/06/19 09:43:28;;;;;;;13.35;9.90;;;21.60;99.90;;;;;;4977132;28;20720;-52
2023/06/19 09:45:56;;;;;;;12.45;11.00;;;21.70;99.90;;;;;;4978716;28;20149;-55
2023/06/19 09:48:29;;;;;;;13.40;9.93;;;21.60;99.90;;;;;;4969189;28;20031;-52
2023/06/19 09:51:00;;;;;;;13.27;10.02;;;21.50;99.90;;;;;;4954045;28;20031;-51
2023/06/19 09:53:27;;;;;;;13.45;9.68;;;21.50;99.90;;;;;;4967879;28;20043;-52
2023/06/19 09:55:52;;;;;;;12.32;9.93;;;21.60;99.90;;;;;;4971908;28;20058;-52
2023/06/19 09:58:19;;;;;;;10.85;9.00;;;21.70;99.90;;;;;;4969554;28;20027;-50
2023/06/19 10:00:46;;;;;;;12.55;9.93;;;21.70;99.90;;;;;;4973476;28;20057;-53
2023/06/19 10:03:13;;;;;;;11.65;9.05;;;21.70;99.90;;;;;;4971787;28;20039;-53
2023/06/19 10:05:40;;;;;;;11.98;9.25;;;21.70;99.90;;;;;;4969028;28;20477;-52
2023/06/19 10:08:06;;;;;;;10.38;8.73;;;21.70;99.90;;;;;;4972455;28;20117;-54
2023/06/19 10:10:33;;;;;;;10.80;8.80;;;21.70;99.90;;;;;;4969919;28;20039;-55
2023/06/19 10:13:11;;;;;;;11.88;8.93;;;21.80;99.90;;;;;;4968082;28;20091;-52
2023/06/19 10:15:42;;;;;;;10.70;8.88;;;21.90;99.90;;;;;;4965451;28;20189;-52
2023/06/19 10:18:12;;;;;;;12.88;9.30;;;21.90;99.90;;;;;;4970453;28;20118;-53
2023/06/19 10:20:39;;;;;;;11.48;8.73;;;22.00;99.90;;;;;;4971244;28;20378;-53
2023/06/19 10:23:07;;;;;;;11.43;8.65;;;22.10;99.90;;;;;;4967508;28;20113;-53
2023/06/19 10:25:43;;;;;;;11.48;8.48;;;22.10;99.90;;;;;;4968764;28;20066;-52
2023/06/19 10:28:26;;;;;;;12.15;8.85;;;22.00;99.90;;;;;;4968964;28;20071;-52
2023/06/19 10:31:03;;;;;;;12.30;7.87;;;21.90;99.90;;;;;;4952160;28;20090;-49
2023/06/19 10:33:34;;;;;;;12.05;8.98;;;22.00;99.90;;;;;;4970604;28;20313;-52
2023/06/19 10:36:02;;;;;;;11.45;9.35;;;22.10;99.90;;;;;;4970131;28;20489;-52
2023/06/19 10:38:28;;;;;;;12.13;8.73;;;22.30;99.90;;;;;;4954796;28;20042;-54
2023/06/19 10:40:54;;;;;;;12.43;9.13;;;22.50;99.90;;;;;;4972369;28;20062;-53
2023/06/19 10:43:22;;;;;;;13.55;9.27;;;22.60;99.90;;;;;;4977520;28;20038;-50
2023/06/19 10:45:48;;;;;;;12.32;9.27;;;22.50;99.90;;;;;;4978334;28;20042;-48
2023/06/19 10:48:27;;;;;;;13.85;10.38;;;22.50;99.90;;;;;;4971757;28;20027;-53
2023/06/19 10:50:56;;;;;;;12.15;9.55;;;22.50;99.90;;;;;;4981559;28;20046;-47
2023/06/19 10:53:30;;;;;;;14.32;8.70;;;22.50;99.90;;;;;;4983372;28;20120;-48
2023/06/19 10:56:01;;;;;;;12.23;9.30;;;22.60;99.90;;;;;;4978817;28;20440;-48
2023/06/19 10:58:28;;;;;;;13.02;9.77;;;22.70;99.90;;;;;;4983759;28;20128;-51
2023/06/19 11:00:53;;;;;;;13.27;10.00;;;23.00;99.90;;;;;;4984536;28;20125;-51
2023/06/19 11:03:20;;;;;;;14.93;10.90;;;23.20;99.90;;;;;;4985646;28;20681;-51
2023/06/19 11:05:47;;;;;;;14.00;10.68;;;23.20;99.90;;;;;;4986166;28;20041;-50
2023/06/19 11:08:21;;;;;;;11.82;9.75;;;23.30;99.90;;;;;;4985395;28;20070;-49
2023/06/19 11:10:47;;;;;;;11.95;10.27;;;23.30;99.90;;;;;;4983279;28;20077;-49
2023/06/19 11:13:18;;;;;;;14.68;10.88;;;23.30;99.90;;;;;;4986076;28;20046;-51
2023/06/19 11:15:44;;;;;;;12.88;10.27;;;23.40;99.90;;;;;;4989557;28;20561;-51
2023/06/19 11:18:10;;;;;;;12.82;11.00;;;23.40;99.90;;;;;;4988483;28;20042;-48
2023/06/19 11:20:52;;;;;;;13.23;11.23;;;23.40;99.90;;;;;;4990188;28;20046;-52
2023/06/19 11:23:30;;;;;;;15.25;11.98;;;23.40;99.90;;;;;;4991877;28;20058;-48
2023/06/19 11:26:03;;;;;;;13.82;10.80;;;23.50;99.90;;;;;;5004990;28;20104;-48
2023/06/19 11:28:29;;;;;;;14.65;10.60;;;23.80;99.90;;;;;;5013124;28;20117;-48
2023/06/19 11:31:01;;;;;;;11.02;9.18;;;23.90;99.90;;;;;;5010122;28;20101;-50
2023/06/19 11:33:27;;;;;;;16.00;10.07;;;24.30;99.90;;;;;;4991317;28;20575;-53
2023/06/19 11:35:57;;;;;;;12.60;10.18;;;24.60;99.90;;;;;;4972882;28;20038;-52
2023/06/19 11:38:24;;;;;;;12.45;9.07;;;24.80;99.90;;;;;;4991434;28;20406;-50
2023/06/19 11:40:50;;;;;;;11.32;9.65;;;25.10;99.90;;;;;;4990880;28;20130;-49
2023/06/19 11:43:36;;;;;;;13.52;10.57;;;25.30;99.90;;;;;;4992767;28;22030;-52
2023/06/19 11:46:06;;;;;;;14.05;9.88;;;25.40;99.90;;;;;;4992748;28;20452;-52
2023/06/19 11:48:32;;;;;;;13.10;9.77;;;25.50;99.60;;;;;;5011919;28;20037;-49
2023/06/19 11:50:58;;;;;;;10.57;8.50;;;25.40;99.00;;;;;;4994439;28;20393;-48
2023/06/19 11:53:24;;;;;;;12.98;10.05;;;25.50;99.20;;;;;;5010958;28;20029;-48
2023/06/19 11:55:53;;;;;;;12.32;9.55;;;25.50;98.70;;;;;;5012287;28;20488;-52
2023/06/19 11:58:22;;;;;;;12.32;9.35;;;25.60;98.50;;;;;;5011790;28;20508;-49
2023/06/19 12:00:48;;;;;;;11.85;9.43;;;25.60;98.50;;;;;;5011669;28;20048;-49
2023/06/19 12:03:14;;;;;;;13.32;9.90;;;25.70;98.20;;;;;;5011697;28;20034;-52
2023/06/19 12:05:40;;;;;;;12.85;10.40;;;25.60;98.30;;;;;;5011401;28;20037;-48
2023/06/19 12:08:06;;;;;;;14.75;9.95;;;25.60;98.40;;;;;;5012006;28;20125;-47
2023/06/19 12:10:32;;;;;;;13.23;9.60;;;25.60;98.00;;;;;;4993948;28;20054;-51
2023/06/19 12:12:58;;;;;;;14.90;10.60;;;25.50;98.00;;;;;;5011721;28;20041;-51
2023/06/19 12:15:24;;;;;;;16.77;11.70;;;25.40;98.00;;;;;;5011605;28;20084;-52
2023/06/19 12:17:51;;;;;;;15.15;10.85;;;25.30;98.00;;;;;;5011380;28;20213;-51
2023/06/19 12:20:17;;;;;;;13.38;10.88;;;25.40;98.10;;;;;;5011152;28;20046;-49
2023/06/19 12:22:43;;;;;;;15.23;12.05;;;25.60;98.40;;;;;;5011544;28;20445;-51
2023/06/19 12:25:10;;;;;;;12.18;10.13;;;25.60;97.90;;;;;;5011589;28;20041;-48
2023/06/19 12:27:37;;;;;;;14.75;10.68;;;25.60;98.00;;;;;;5011503;28;20029;-50
2023/06/19 12:30:03;;;;;;;13.95;10.73;;;25.80;97.80;;;;;;5011178;28;20038;-51
2023/06/19 12:32:29;;;;;;;14.82;11.93;;;25.80;97.50;;;;;;5011193;28;20052;-49
2023/06/19 12:34:55;;;;;;;13.30;10.75;;;25.90;97.50;;;;;;5011022;28;20120;-50
2023/06/19 12:37:21;;;;;;;15.25;10.48;;;26.00;97.50;;;;;;5010823;28;20054;-50
2023/06/19 12:39:51;;;;;;;16.15;12.00;;;26.00;97.70;;;;;;5010876;28;20085;-51